Volga, West Virginia
Current Conditions -  °F | °C
As of 9:15 AM on Saturday 20 Dec 2014 (Local Time) from KW22 Reporting Station
Broken Clouds Broken Clouds  
Wind Chill: 21°   Ceiling: 1300
Heat Index: 27°   Visibility: 10mi
Dew Point: 21°   Wind: 5mph
Humidity: 80%   Direction: 50°NE
Pressure: 30.22"   Gusts: NA
Location:  39.08°N, 80.14°W
Report Text: KW22 201415Z AUTO 05004KT 10SM BKN013 M03/M06 A3022 RMK AO2
Loading
Personal Weather Stations






























Interactive Weather Map New forecast layout! Learn more

10-Day Weather Forecast

Advertisements
Track Severe Weather on mobile